Occidental, CA (95465)

2:04 AM PST on February 11, 2016 (GMT -0800)
Occidental Joy Rd | | Change Station
CLOSE
Current Station
Personal Weather Station
Location: Occidental, CA
Elevation: 1004 ft
Nearby Weather Stations

Elev 1004 ft 38.40 °N, 122.97 °W | Updated 14 seconds ago

Partly Cloudy
Partly Cloudy
54.7 °F
Feels Like 54.7 °F
N
0.0
Wind Variable Wind from WSW
Gusts 0.0 mph

Today
High -- | Low -- °F
--% Chance of Precip.
Yesterday
High -- | Low -- °F
Precip. -- in
Pressure 30.12 in
Visibility 8.0 miles
Clouds Clear
Dew Point 24 °F
Humidity 30%
Rainfall 0.00 in
Snow Depth Not available.
7:07 AM 5:45 PM
Waxing Crescent, 11% visible
METAR KSTS 110953Z AUTO 30003KT 8SM CLR 09/09 A3014 RMK AO2 SLP199 T00940089
Pressure 30.12 in
Visibility 8.0 miles
Clouds Clear
Dew Point 24 °F
Humidity 30%
Rainfall 0.00 in
Snow Depth Not available.
7:07 AM 5:45 PM
Waxing Crescent, 11% visible
METAR KSTS 110953Z AUTO 30003KT 8SM CLR 09/09 A3014 RMK AO2 SLP199 T00940089

10-Day Weather Forecast

Almanac

Astronomy

Feb. 11, 2016 Rise Set
Actual Time
Civil Twilight
Nautical Twilight
Astronomical Twilight
Moon
Length of Visible Light
Length of Day
Tomorrow will be .
, % of the Moon is Illuminated

Today's Extremes

State Highs State Lows

Community

WunderPhotos

Upload Photos

1,892,030 photos uploaded!

WunderBlog® & News

Nearby

Air Quality

  Air Quality AQ Index Pollutant
Not available.

Snow Depth

Station Depth Elevation

Earthquake Activity

City Distance Mag. Time & Date
Minimum magnitude displayed is 2.5.

Coastal Water Temperatures

Place Temperature

Stations

Nearby Weather Stations

Station Location Temp. Windchill Dew Point Humidity Wind Precip. Elev Updated Type
                   

Watches & Warnings

There are currently no watches in effect.